Flight Track Log - Related Links

Times and Time Zones

All times are in EDT time to prevent confusion due to time zone crossing. See the KAP82 flight status page for this flight to view local times or setup timezone preferences in your user account.

Time Position Orientation Groundspeed Altitude Reporting Facility
EDT Latitude Longitude Course Direction KTS MPH feet Rate Location/Type
Tue 10:35:25 AM 42.7964 -73.8181 349° North 107 123 1,500  Level Boston Center
Tue 10:36:24 AM 42.8275 -73.8244 351° North 108 124 2,100 611 Climbing Boston Center
Tue 10:37:13 AM 42.8503 -73.8306 349° North 111 128 2,600 655 Climbing Boston Center
Tue 10:38:14 AM 42.8817 -73.8369 352° North 114 131 3,300 672 Climbing Boston Center
Tue 10:39:27 AM 42.9169 -73.8436 352° North 111 128 4,100 595 Climbing Boston Center
Tue 10:40:15 AM 42.9419 -73.8525 345° North 108 124 4,500 639 Climbing Boston Center
Tue 10:41:29 AM 42.9772 -73.8589 352° North 111 128 5,400 641 Climbing Boston Center
Tue 10:42:26 AM 43.0000 -73.8625 353° North 110 127 5,900 610 Climbing Boston Center
Tue 10:43:27 AM 43.0311 -73.8717 348° North 100 115 6,600 541 Climbing Boston Center
Tue 10:44:28 AM 43.0583 -73.8781 350° North 100 115 7,000 248 Climbing Boston Center
Tue 10:45:28 AM 43.0956 -73.8872 350° North 113 130 7,100 102 Climbing Boston Center
Tue 10:46:26 AM 43.1247 -73.9050 336° Northwest 118 136 7,200 200 Climbing Boston Center
Tue 10:48:28 AM 43.1842 -73.9633 324° Northwest 130 150 7,700 298 Climbing Boston Center
Tue 10:49:27 AM 43.2172 -73.9956 325° Northwest 130 150 8,100 203 Climbing Boston Center
Tue 10:50:26 AM 43.2458 -74.0250 323° Northwest 135 155 8,100  Level Boston Center
Tue 10:51:26 AM 43.2831 -74.0600 326° Northwest 135 155 8,100  Level Boston Center
Tue 10:52:27 AM 43.3117 -74.0894 323° Northwest 142 163 8,100  Level Boston Center
Tue 10:53:27 AM 43.3486 -74.1247 325° Northwest 148 170 8,100  Level Boston Center
Tue 10:54:26 AM 43.3794 -74.1569 323° Northwest 148 170 8,100  Level Boston Center
Tue 10:55:26 AM 43.4164 -74.1922 325° Northwest 148 170 8,100  Level Boston Center
Tue 10:56:28 AM 43.4514 -74.2247 326° Northwest 148 170 8,100 -49 Level Boston Center
Tue 10:57:28 AM 43.4842 -74.2572 324° Northwest 148 170 8,000  Descending Boston Center
Tue 10:58:26 AM 43.5192 -74.2897 326° Northwest 148 170 8,100 50 Climbing Boston Center
Tue 10:59:27 AM 43.5539 -74.3281 321° Northwest 148 170 8,100 -49 Level Boston Center
Tue 11:00:28 AM 43.5889 -74.3606 326° Northwest 148 170 8,000  Descending Boston Center
Tue 11:01:28 AM 43.6236 -74.3933 326° Northwest 148 170 8,100 51 Climbing Boston Center
Tue 11:02:26 AM 43.6564 -74.4289 322° Northwest 148 170 8,100 -51 Level Boston Center
Tue 11:03:26 AM 43.6914 -74.4644 324° Northwest 148 170 8,000  Descending Boston Center
Tue 11:04:27 AM 43.7261 -74.4972 326° Northwest 148 170 8,100 49 Climbing Boston Center
Tue 11:05:28 AM 43.7608 -74.5300 326° Northwest 148 170 8,100 -50 Level Boston Center
Tue 11:06:28 AM 43.7936 -74.5628 324° Northwest 148 170 8,000 -51 Descending Boston Center
Tue 11:07:26 AM 43.8286 -74.5956 326° Northwest 148 170 8,000 50 Level Boston Center
Tue 11:08:28 AM 43.8611 -74.6342 319° Northwest 148 170 8,100  Climbing Boston Center
Tue 11:09:28 AM 43.8958 -74.6672 326° Northwest 148 170 8,000 -51 Descending Boston Center
Tue 11:10:26 AM 43.9286 -74.7003 324° Northwest 148 170 8,000  Level Boston Center
Tue 11:11:26 AM 43.9633 -74.7333 326° Northwest 148 170 8,000 50 Level Boston Center
Tue 11:12:27 AM 43.9983 -74.7633 328° Northwest 148 170 8,100  Climbing Boston Center
Tue 11:13:29 AM 44.0350 -74.7936 329° Northwest 148 170 8,000 -50 Descending Boston Center
Tue 11:14:27 AM 44.0700 -74.8211 331° Northwest 148 170 8,000  Level Boston Center
Tue 11:15:28 AM 44.1028 -74.8514 326° Northwest 148 170 8,000  Level Boston Center
Tue 11:16:26 AM 44.1333 -74.8758 330° Northwest 143 165 8,000  Level Boston Center
Tue 11:17:26 AM 44.1622 -74.9000 329° Northwest 132 152 8,000  Level Boston Center
Tue 11:18:27 AM 44.1886 -74.9244 326° Northwest 121 139 8,000  Level Boston Center
Tue 11:19:27 AM 44.2172 -74.9486 329° Northwest 121 139 8,000  Level Boston Center
Tue 11:20:28 AM 44.2419 -74.9672 332° Northwest 121 139 8,000  Level Boston Center
Tue 11:21:28 AM 44.2683 -74.9914 327° Northwest 121 139 8,000  Level Boston Center
Tue 11:22:29 AM 44.2953 -75.0100 334° Northwest 116 133 8,000 -153 Level Boston Center
Tue 11:23:26 AM 44.3258 -75.0375 327° Northwest 121 139 7,700 -254 Descending Boston Center
Tue 11:24:27 AM 44.3586 -75.0622 332° Northwest 121 139 7,500 -246 Descending Boston Center
Tue 11:25:28 AM 44.3892 -75.0925 325° Northwest 121 139 7,200 -248 Descending Boston Center
Tue 11:26:28 AM 44.4219 -75.1144 334° Northwest 121 139 7,000 -254 Descending Boston Center
Tue 11:27:26 AM 44.4547 -75.1419 329° Northwest 126 145 6,700 -252 Descending Boston Center
Tue 11:28:27 AM 44.4872 -75.1725 326° Northwest 126 145 6,500 -295 Descending Boston Center
Tue 11:29:28 AM 44.5200 -75.1975 331° Northwest 132 152 6,100 -403 Descending Boston Center
Tue 11:30:26 AM 44.5547 -75.2253 330° Northwest 138 159 5,700 -500 Descending Boston Center
Tue 11:31:28 AM 44.5917 -75.2561 329° Northwest 138 159 5,100 -293 Descending Boston Center
Tue 11:32:29 AM 44.6261 -75.2869 328° Northwest 143 165 5,100  Level Boston Center
Tue 11:33:27 AM 44.6569 -75.3119 330° Northwest 138 159 5,100  Level Boston Center
Tue 11:34:27 AM 44.6850 -75.3483 317° Northwest 133 153 5,100 -50 Level Boston Center
Tue 11:35:28 AM 44.6992 -75.3722 310° West 116 133 5,000 -450 Descending Boston Center
Tue 11:36:27 AM 44.6725 -75.3506 150° Southeast 37 43 4,200 -655 Descending Boston Center
Tue 11:37:27 AM 44.6867 -75.2811 74° East 115 132 3,700 -400 Descending Boston Center
Tue 11:38:27 AM 44.6983 -75.2350 70° East 123 142 3,400 -300 Descending Boston Center
Tue 11:40:00 AM 44.6868 -75.3134 258° West  Level FlightAware Approximate
Tue 11:47:00 AM 44.6667 -75.4500 264° West  Level FlightAware Approximate

Login

Don't have an account? Register now (free) for customized features, flight alerts, and more!